White Oaks, New Mexico
Current Conditions -  °F | °C
As of 10:58 PM on Friday 24 Oct 2014 (Local Time) from KHMN Reporting Station
Clear Clear  
Wind Chill: 59°   Ceiling: Unl
Heat Index: 59°   Visibility: 10mi
Dew Point: 47°   Wind: 5mph
Humidity: 65%   Direction: 110°ESE
Pressure: 30.21"   Gusts: NA
Location:  33.6269°N, 105.978°W
Report Text: KHMN 250458Z AUTO 11004KT 10SM CLR 15/09 A3021 RMK AO2 SLP179 T01510085 $
Loading
Personal Weather Stations






























Interactive Weather Map
Tropical Storm Tracking
New forecast layout! Learn more

10-Day Weather Forecast

Advertisements
Track Severe Weather on mobile